sensor_id;sensor_type;location;lat;lon;timestamp;pressure;altitude;pressure_sealevel;temperature;humidity
80682;BME280;70045;40.200;44.582;2024-01-16T00:02:25;86796.19;;;-0.32;48.56
80682;BME280;70045;40.200;44.582;2024-01-16T00:04:53;86791.94;;;-0.28;48.94
80682;BME280;70045;40.200;44.582;2024-01-16T00:07:18;86808.63;;;-0.14;49.35
80682;BME280;70045;40.200;44.582;2024-01-16T00:09:44;86816.09;;;-0.22;49.73
80682;BME280;70045;40.200;44.582;2024-01-16T00:12:09;86810.13;;;-0.13;49.01
80682;BME280;70045;40.200;44.582;2024-01-16T00:14:37;86805.22;;;0.10;48.61
80682;BME280;70045;40.200;44.582;2024-01-16T00:17:06;86805.91;;;0.23;47.24
80682;BME280;70045;40.200;44.582;2024-01-16T00:19:32;86808.47;;;0.39;47.45
80682;BME280;70045;40.200;44.582;2024-01-16T00:21:57;86811.50;;;0.44;47.89
80682;BME280;70045;40.200;44.582;2024-01-16T00:24:23;86795.53;;;0.47;48.62
80682;BME280;70045;40.200;44.582;2024-01-16T00:26:48;86795.38;;;0.40;48.21
80682;BME280;70045;40.200;44.582;2024-01-16T00:29:16;86794.78;;;0.31;48.71
80682;BME280;70045;40.200;44.582;2024-01-16T00:31:42;86804.50;;;0.25;49.31
80682;BME280;70045;40.200;44.582;2024-01-16T00:34:07;86794.22;;;0.22;49.46
80682;BME280;70045;40.200;44.582;2024-01-16T00:36:33;86794.38;;;0.13;49.28
80682;BME280;70045;40.200;44.582;2024-01-16T00:38:58;86782.19;;;0.06;49.37
80682;BME280;70045;40.200;44.582;2024-01-16T00:41:27;86784.09;;;-0.07;49.98
80682;BME280;70045;40.200;44.582;2024-01-16T00:43:52;86783.53;;;0.00;50.42
80682;BME280;70045;40.200;44.582;2024-01-16T00:46:18;86772.66;;;0.03;50.20
80682;BME280;70045;40.200;44.582;2024-01-16T00:48:43;86767.31;;;0.08;50.54
80682;BME280;70045;40.200;44.582;2024-01-16T00:51:09;86767.22;;;0.21;49.49
80682;BME280;70045;40.200;44.582;2024-01-16T00:53:43;86768.72;;;0.22;50.46
80682;BME280;70045;40.200;44.582;2024-01-16T00:56:08;86771.75;;;0.27;49.97
80682;BME280;70045;40.200;44.582;2024-01-16T00:58:34;86775.06;;;0.44;49.70
80682;BME280;70045;40.200;44.582;2024-01-16T01:00:59;86777.28;;;0.45;50.16
80682;BME280;70045;40.200;44.582;2024-01-16T01:03:25;86777.94;;;0.42;50.69
80682;BME280;70045;40.200;44.582;2024-01-16T01:05:54;86774.75;;;0.45;50.63
80682;BME280;70045;40.200;44.582;2024-01-16T01:08:19;86770.34;;;0.62;49.96
80682;BME280;70045;40.200;44.582;2024-01-16T01:10:45;86772.66;;;0.67;50.48
80682;BME280;70045;40.200;44.582;2024-01-16T01:13:10;86773.06;;;0.69;50.45
80682;BME280;70045;40.200;44.582;2024-01-16T01:15:36;86769.19;;;0.75;49.93
80682;BME280;70045;40.200;44.582;2024-01-16T01:18:05;86765.88;;;0.74;50.07
80682;BME280;70045;40.200;44.582;2024-01-16T01:20:30;86763.81;;;0.80;51.24
80682;BME280;70045;40.200;44.582;2024-01-16T01:22:56;86763.06;;;0.96;50.02
80682;BME280;70045;40.200;44.582;2024-01-16T01:25:21;86757.56;;;1.13;49.85
80682;BME280;70045;40.200;44.582;2024-01-16T01:27:47;86756.28;;;1.23;49.10
80682;BME280;70045;40.200;44.582;2024-01-16T01:30:15;86726.09;;;1.09;49.12
80682;BME280;70045;40.200;44.582;2024-01-16T01:32:40;86740.91;;;1.19;49.35
80682;BME280;70045;40.200;44.582;2024-01-16T01:35:06;86736.59;;;1.04;49.87
80682;BME280;70045;40.200;44.582;2024-01-16T01:37:32;86737.94;;;0.98;49.88
80682;BME280;70045;40.200;44.582;2024-01-16T01:39:57;86768.16;;;0.96;50.40
80682;BME280;70045;40.200;44.582;2024-01-16T01:42:26;86779.31;;;1.07;50.29
80682;BME280;70045;40.200;44.582;2024-01-16T01:44:52;86776.78;;;1.07;50.18
80682;BME280;70045;40.200;44.582;2024-01-16T01:47:17;86768.91;;;1.16;49.65
80682;BME280;70045;40.200;44.582;2024-01-16T01:49:43;86774.09;;;1.19;49.74
80682;BME280;70045;40.200;44.582;2024-01-16T01:52:08;86781.91;;;1.26;49.59
80682;BME280;70045;40.200;44.582;2024-01-16T01:54:38;86783.47;;;1.31;49.78
80682;BME280;70045;40.200;44.582;2024-01-16T01:57:05;86776.81;;;1.46;49.30
80682;BME280;70045;40.200;44.582;2024-01-16T01:59:33;86767.47;;;1.54;48.85
80682;BME280;70045;40.200;44.582;2024-01-16T02:01:58;86762.34;;;1.54;49.41
80682;BME280;70045;40.200;44.582;2024-01-16T02:04:25;86761.97;;;1.52;49.30
80682;BME280;70045;40.200;44.582;2024-01-16T02:06:55;86758.78;;;1.39;48.85
80682;BME280;70045;40.200;44.582;2024-01-16T02:09:20;86756.59;;;1.37;49.13
80682;BME280;70045;40.200;44.582;2024-01-16T02:11:45;86767.28;;;1.43;49.86
80682;BME280;70045;40.200;44.582;2024-01-16T02:14:11;86766.97;;;1.28;49.90
80682;BME280;70045;40.200;44.582;2024-01-16T02:16:38;86767.41;;;1.30;51.23
80682;BME280;70045;40.200;44.582;2024-01-16T02:19:07;86760.13;;;1.33;50.61
80682;BME280;70045;40.200;44.582;2024-01-16T02:21:37;86756.34;;;1.26;50.38
80682;BME280;70045;40.200;44.582;2024-01-16T02:24:04;86747.34;;;1.13;50.63
80682;BME280;70045;40.200;44.582;2024-01-16T02:26:30;86733.34;;;0.87;51.01
80682;BME280;70045;40.200;44.582;2024-01-16T02:28:56;86738.22;;;0.77;50.83
80682;BME280;70045;40.200;44.582;2024-01-16T02:31:25;86725.16;;;0.62;51.63
80682;BME280;70045;40.200;44.582;2024-01-16T02:33:50;86742.56;;;0.76;51.17
80682;BME280;70045;40.200;44.582;2024-01-16T02:36:16;86735.97;;;0.91;50.72
80682;BME280;70045;40.200;44.582;2024-01-16T02:38:41;86733.81;;;0.93;50.20
80682;BME280;70045;40.200;44.582;2024-01-16T02:41:07;86733.97;;;1.00;50.73
80682;BME280;70045;40.200;44.582;2024-01-16T02:43:36;86722.34;;;1.03;50.00
80682;BME280;70045;40.200;44.582;2024-01-16T02:46:04;86708.50;;;1.04;49.45
80682;BME280;70045;40.200;44.582;2024-01-16T02:48:29;86723.94;;;1.11;49.76
80682;BME280;70045;40.200;44.582;2024-01-16T02:50:55;86711.34;;;1.18;48.97
80682;BME280;70045;40.200;44.582;2024-01-16T02:53:20;86686.69;;;1.06;48.62
80682;BME280;70045;40.200;44.582;2024-01-16T02:55:48;86679.59;;;0.80;49.34
80682;BME280;70045;40.200;44.582;2024-01-16T02:58:14;86693.25;;;0.88;49.27
80682;BME280;70045;40.200;44.582;2024-01-16T03:00:39;86716.88;;;0.85;48.70
80682;BME280;70045;40.200;44.582;2024-01-16T03:03:05;86726.59;;;0.79;48.45
80682;BME280;70045;40.200;44.582;2024-01-16T03:05:30;86716.06;;;0.81;48.89
80682;BME280;70045;40.200;44.582;2024-01-16T03:07:58;86710.22;;;0.80;48.85
80682;BME280;70045;40.200;44.582;2024-01-16T03:10:24;86725.63;;;0.84;48.02
80682;BME280;70045;40.200;44.582;2024-01-16T03:12:49;86733.00;;;0.53;50.05
80682;BME280;70045;40.200;44.582;2024-01-16T03:15:14;86719.19;;;0.54;49.84
80682;BME280;70045;40.200;44.582;2024-01-16T03:17:40;86729.38;;;0.54;49.91
80682;BME280;70045;40.200;44.582;2024-01-16T03:20:10;86734.97;;;0.44;50.64
80682;BME280;70045;40.200;44.582;2024-01-16T03:22:36;86725.59;;;0.48;50.50
80682;BME280;70045;40.200;44.582;2024-01-16T03:25:01;86738.81;;;0.70;50.07
80682;BME280;70045;40.200;44.582;2024-01-16T03:27:27;86719.66;;;0.96;48.83
80682;BME280;70045;40.200;44.582;2024-01-16T03:29:52;86715.22;;;0.92;48.63
80682;BME280;70045;40.200;44.582;2024-01-16T03:32:21;86730.22;;;0.78;49.80
80682;BME280;70045;40.200;44.582;2024-01-16T03:34:47;86719.84;;;0.87;49.69
80682;BME280;70045;40.200;44.582;2024-01-16T03:37:12;86718.13;;;1.10;49.77
80682;BME280;70045;40.200;44.582;2024-01-16T03:39:37;86727.13;;;1.24;49.13
80682;BME280;70045;40.200;44.582;2024-01-16T03:42:03;86729.75;;;1.27;48.98
80682;BME280;70045;40.200;44.582;2024-01-16T03:44:32;86739.03;;;1.36;49.54
80682;BME280;70045;40.200;44.582;2024-01-16T03:46:57;86733.22;;;1.39;48.55
80682;BME280;70045;40.200;44.582;2024-01-16T03:49:23;86744.94;;;1.40;48.64
80682;BME280;70045;40.200;44.582;2024-01-16T03:51:49;86748.34;;;1.47;48.17
80682;BME280;70045;40.200;44.582;2024-01-16T03:54:15;86738.63;;;1.53;48.47
80682;BME280;70045;40.200;44.582;2024-01-16T03:56:45;86742.91;;;1.49;48.09
80682;BME280;70045;40.200;44.582;2024-01-16T03:59:10;86753.63;;;1.55;48.87
80682;BME280;70045;40.200;44.582;2024-01-16T04:01:35;86759.19;;;1.60;48.12
80682;BME280;70045;40.200;44.582;2024-01-16T04:04:01;86746.28;;;1.73;48.05
80682;BME280;70045;40.200;44.582;2024-01-16T04:06:26;86744.66;;;1.64;48.03
80682;BME280;70045;40.200;44.582;2024-01-16T04:08:54;86747.75;;;1.74;47.88
80682;BME280;70045;40.200;44.582;2024-01-16T04:11:20;86748.06;;;1.92;47.64
80682;BME280;70045;40.200;44.582;2024-01-16T04:13:45;86740.38;;;1.92;47.75
80682;BME280;70045;40.200;44.582;2024-01-16T04:16:12;86739.25;;;1.89;48.20
80682;BME280;70045;40.200;44.582;2024-01-16T04:18:39;86734.19;;;1.93;47.84
80682;BME280;70045;40.200;44.582;2024-01-16T04:21:09;86724.31;;;1.91;47.86
80682;BME280;70045;40.200;44.582;2024-01-16T04:23:34;86734.13;;;1.89;48.00
80682;BME280;70045;40.200;44.582;2024-01-16T04:26:00;86736.97;;;1.84;47.98
80682;BME280;70045;40.200;44.582;2024-01-16T04:28:25;86736.00;;;1.92;47.82
80682;BME280;70045;40.200;44.582;2024-01-16T04:30:51;86736.41;;;1.94;48.11
80682;BME280;70045;40.200;44.582;2024-01-16T04:33:20;86734.94;;;1.93;48.00
80682;BME280;70045;40.200;44.582;2024-01-16T04:35:46;86735.00;;;1.97;47.77
80682;BME280;70045;40.200;44.582;2024-01-16T04:38:11;86748.75;;;2.12;47.40
80682;BME280;70045;40.200;44.582;2024-01-16T04:40:37;86736.59;;;2.05;47.33
80682;BME280;70045;40.200;44.582;2024-01-16T04:43:02;86742.16;;;2.11;47.12
80682;BME280;70045;40.200;44.582;2024-01-16T04:45:30;86760.13;;;2.14;46.82
80682;BME280;70045;40.200;44.582;2024-01-16T04:47:56;86755.84;;;2.22;46.92
80682;BME280;70045;40.200;44.582;2024-01-16T04:50:21;86759.63;;;2.28;46.37
80682;BME280;70045;40.200;44.582;2024-01-16T04:52:47;86732.88;;;2.25;46.53
80682;BME280;70045;40.200;44.582;2024-01-16T04:55:12;86745.00;;;2.29;46.86
80682;BME280;70045;40.200;44.582;2024-01-16T04:57:41;86739.38;;;1.96;46.51
80682;BME280;70045;40.200;44.582;2024-01-16T05:00:07;86751.22;;;2.28;48.06
80682;BME280;70045;40.200;44.582;2024-01-16T05:02:33;86751.38;;;2.38;48.25
80682;BME280;70045;40.200;44.582;2024-01-16T05:04:59;86755.94;;;2.49;47.66
80682;BME280;70045;40.200;44.582;2024-01-16T05:07:24;86744.81;;;2.41;47.54
80682;BME280;70045;40.200;44.582;2024-01-16T05:10:25;86750.69;;;2.41;48.63
80682;BME280;70045;40.200;44.582;2024-01-16T05:12:50;86754.28;;;2.14;49.34
80682;BME280;70045;40.200;44.582;2024-01-16T05:15:16;86749.84;;;2.11;49.60
80682;BME280;70045;40.200;44.582;2024-01-16T05:17:41;86745.13;;;2.13;50.14
80682;BME280;70045;40.200;44.582;2024-01-16T05:20:07;86749.88;;;1.91;51.08
80682;BME280;70045;40.200;44.582;2024-01-16T05:22:35;86762.72;;;1.95;50.21
80682;BME280;70045;40.200;44.582;2024-01-16T05:25:01;86731.22;;;1.67;50.93
80682;BME280;70045;40.200;44.582;2024-01-16T05:27:27;86770.47;;;1.59;52.19
80682;BME280;70045;40.200;44.582;2024-01-16T05:29:52;86767.88;;;1.56;52.48
80682;BME280;70045;40.200;44.582;2024-01-16T05:32:18;86762.69;;;1.52;52.20
80682;BME280;70045;40.200;44.582;2024-01-16T05:34:46;86760.88;;;1.72;51.41
80682;BME280;70045;40.200;44.582;2024-01-16T05:37:11;86758.72;;;1.74;51.21
80682;BME280;70045;40.200;44.582;2024-01-16T05:39:37;86755.22;;;1.82;50.89
80682;BME280;70045;40.200;44.582;2024-01-16T05:42:03;86767.72;;;1.68;51.05
80682;BME280;70045;40.200;44.582;2024-01-16T05:44:28;86731.22;;;1.67;50.89
80682;BME280;70045;40.200;44.582;2024-01-16T05:46:57;86766.28;;;1.90;51.09
80682;BME280;70045;40.200;44.582;2024-01-16T05:49:23;86765.25;;;2.14;50.13
80682;BME280;70045;40.200;44.582;2024-01-16T05:51:48;86761.44;;;2.28;50.42
80682;BME280;70045;40.200;44.582;2024-01-16T05:54:14;86758.59;;;2.10;50.42
80682;BME280;70045;40.200;44.582;2024-01-16T05:56:39;86759.41;;;1.94;50.91
80682;BME280;70045;40.200;44.582;2024-01-16T05:59:07;86765.75;;;2.00;50.95
80682;BME280;70045;40.200;44.582;2024-01-16T06:01:33;86756.59;;;1.99;51.10
80682;BME280;70045;40.200;44.582;2024-01-16T06:03:59;86765.00;;;2.00;51.59
80682;BME280;70045;40.200;44.582;2024-01-16T06:06:24;86765.84;;;2.07;51.81
80682;BME280;70045;40.200;44.582;2024-01-16T06:08:50;86767.69;;;2.30;51.60
80682;BME280;70045;40.200;44.582;2024-01-16T06:11:22;86765.97;;;2.61;50.13
80682;BME280;70045;40.200;44.582;2024-01-16T06:13:54;86776.44;;;2.75;49.87
80682;BME280;70045;40.200;44.582;2024-01-16T06:16:19;86773.03;;;2.68;49.61
80682;BME280;70045;40.200;44.582;2024-01-16T06:18:45;86772.22;;;2.87;48.80
80682;BME280;70045;40.200;44.582;2024-01-16T06:21:10;86777.88;;;2.99;47.92
80682;BME280;70045;40.200;44.582;2024-01-16T06:23:39;86787.22;;;2.88;47.43
80682;BME280;70045;40.200;44.582;2024-01-16T06:26:07;86781.91;;;2.51;49.33
80682;BME280;70045;40.200;44.582;2024-01-16T06:28:33;86785.81;;;2.21;50.70
80682;BME280;70045;40.200;44.582;2024-01-16T06:31:02;86795.16;;;2.33;50.26
80682;BME280;70045;40.200;44.582;2024-01-16T06:33:51;86779.56;;;2.65;49.51
80682;BME280;70045;40.200;44.582;2024-01-16T06:36:16;86773.28;;;2.59;49.67
80682;BME280;70045;40.200;44.582;2024-01-16T06:38:44;86777.03;;;2.42;51.02
80682;BME280;70045;40.200;44.582;2024-01-16T06:41:48;86783.38;;;2.52;50.46
80682;BME280;70045;40.200;44.582;2024-01-16T06:47:41;86770.84;;;3.19;48.44
80682;BME280;70045;40.200;44.582;2024-01-16T06:50:25;86720.59;;;3.11;47.03
80682;BME280;70045;40.200;44.582;2024-01-16T06:52:59;86761.47;;;3.61;47.02
80682;BME280;70045;40.200;44.582;2024-01-16T06:58:57;86770.38;;;3.74;46.28
80682;BME280;70045;40.200;44.582;2024-01-16T07:01:26;86770.34;;;3.71;47.01
80682;BME280;70045;40.200;44.582;2024-01-16T07:03:57;86774.13;;;3.81;46.84
80682;BME280;70045;40.200;44.582;2024-01-16T07:06:25;86774.16;;;3.84;46.76
80682;BME280;70045;40.200;44.582;2024-01-16T07:08:56;86762.59;;;3.98;45.79
80682;BME280;70045;40.200;44.582;2024-01-16T07:11:21;86760.47;;;4.07;45.33
80682;BME280;70045;40.200;44.582;2024-01-16T07:13:53;86752.91;;;4.21;46.15
80682;BME280;70045;40.200;44.582;2024-01-16T07:16:48;86764.97;;;4.17;45.22
80682;BME280;70045;40.200;44.582;2024-01-16T07:19:31;86758.41;;;4.23;45.34
80682;BME280;70045;40.200;44.582;2024-01-16T07:21:57;86761.56;;;4.47;45.32
80682;BME280;70045;40.200;44.582;2024-01-16T07:24:22;86757.06;;;4.37;44.27
80682;BME280;70045;40.200;44.582;2024-01-16T07:26:52;86752.94;;;4.69;43.79
80682;BME280;70045;40.200;44.582;2024-01-16T07:29:18;86751.94;;;4.81;44.27
80682;BME280;70045;40.200;44.582;2024-01-16T07:31:43;86766.78;;;5.06;43.38
80682;BME280;70045;40.200;44.582;2024-01-16T07:34:09;86761.97;;;5.01;40.97
80682;BME280;70045;40.200;44.582;2024-01-16T07:36:34;86746.59;;;5.04;42.73
80682;BME280;70045;40.200;44.582;2024-01-16T07:39:02;86744.50;;;5.24;41.51
80682;BME280;70045;40.200;44.582;2024-01-16T07:41:28;86748.91;;;5.27;41.19
80682;BME280;70045;40.200;44.582;2024-01-16T07:43:53;86733.13;;;5.29;41.57
80682;BME280;70045;40.200;44.582;2024-01-16T07:46:18;86740.97;;;5.51;40.76
80682;BME280;70045;40.200;44.582;2024-01-16T07:48:44;86738.09;;;5.63;39.04
80682;BME280;70045;40.200;44.582;2024-01-16T07:51:13;86731.56;;;5.91;40.16
80682;BME280;70045;40.200;44.582;2024-01-16T07:53:38;86729.44;;;6.11;41.26
80682;BME280;70045;40.200;44.582;2024-01-16T07:56:04;86730.94;;;6.22;38.88
80682;BME280;70045;40.200;44.582;2024-01-16T07:58:29;86729.47;;;6.21;40.68
80682;BME280;70045;40.200;44.582;2024-01-16T08:00:55;86728.28;;;5.94;38.36
80682;BME280;70045;40.200;44.582;2024-01-16T08:03:23;86720.53;;;5.90;40.80
80682;BME280;70045;40.200;44.582;2024-01-16T08:05:48;86725.63;;;5.76;40.62
80682;BME280;70045;40.200;44.582;2024-01-16T08:08:14;86716.06;;;5.76;39.75
80682;BME280;70045;40.200;44.582;2024-01-16T08:10:42;86715.00;;;5.81;39.83
80682;BME280;70045;40.200;44.582;2024-01-16T08:13:08;86713.84;;;5.68;41.09
80682;BME280;70045;40.200;44.582;2024-01-16T08:15:36;86714.22;;;5.66;40.49
80682;BME280;70045;40.200;44.582;2024-01-16T08:18:02;86716.03;;;5.62;40.11
80682;BME280;70045;40.200;44.582;2024-01-16T08:20:27;86715.25;;;5.51;41.53
80682;BME280;70045;40.200;44.582;2024-01-16T08:22:53;86705.31;;;5.42;40.61
80682;BME280;70045;40.200;44.582;2024-01-16T08:25:18;86698.69;;;5.44;41.83
80682;BME280;70045;40.200;44.582;2024-01-16T08:27:48;86706.03;;;5.46;40.82
80682;BME280;70045;40.200;44.582;2024-01-16T08:30:13;86702.03;;;5.49;40.60
80682;BME280;70045;40.200;44.582;2024-01-16T08:32:39;86695.34;;;5.33;41.31
80682;BME280;70045;40.200;44.582;2024-01-16T08:35:05;86683.28;;;5.55;41.79
80682;BME280;70045;40.200;44.582;2024-01-16T08:37:32;86687.00;;;5.65;42.38
80682;BME280;70045;40.200;44.582;2024-01-16T08:40:01;86685.94;;;5.66;40.89
80682;BME280;70045;40.200;44.582;2024-01-16T08:42:26;86680.00;;;5.62;41.58
80682;BME280;70045;40.200;44.582;2024-01-16T08:44:52;86677.88;;;5.78;42.42
80682;BME280;70045;40.200;44.582;2024-01-16T08:47:17;86663.19;;;5.90;41.13
80682;BME280;70045;40.200;44.582;2024-01-16T08:49:43;86667.66;;;6.03;40.63
80682;BME280;70045;40.200;44.582;2024-01-16T08:52:11;86662.16;;;6.19;40.17
80682;BME280;70045;40.200;44.582;2024-01-16T08:54:36;86658.13;;;6.18;40.20
80682;BME280;70045;40.200;44.582;2024-01-16T08:57:02;86660.34;;;6.16;38.57
80682;BME280;70045;40.200;44.582;2024-01-16T08:59:28;86644.88;;;6.24;40.12
80682;BME280;70045;40.200;44.582;2024-01-16T09:01:53;86655.19;;;6.27;38.81
80682;BME280;70045;40.200;44.582;2024-01-16T09:04:27;86655.56;;;6.26;38.79
80682;BME280;70045;40.200;44.582;2024-01-16T09:06:52;86636.44;;;6.45;37.21
80682;BME280;70045;40.200;44.582;2024-01-16T09:09:18;86633.47;;;6.53;37.62
80682;BME280;70045;40.200;44.582;2024-01-16T09:11:43;86633.44;;;6.71;37.76
80682;BME280;70045;40.200;44.582;2024-01-16T09:14:08;86625.03;;;6.56;38.25
80682;BME280;70045;40.200;44.582;2024-01-16T09:16:38;86640.47;;;6.35;37.15
80682;BME280;70045;40.200;44.582;2024-01-16T09:19:03;86632.38;;;6.40;39.45
80682;BME280;70045;40.200;44.582;2024-01-16T09:21:28;86629.81;;;6.26;42.35
80682;BME280;70045;40.200;44.582;2024-01-16T09:23:54;86636.03;;;6.28;41.74
80682;BME280;70045;40.200;44.582;2024-01-16T09:26:19;86641.94;;;6.54;41.24
80682;BME280;70045;40.200;44.582;2024-01-16T09:28:48;86627.22;;;6.62;40.79
80682;BME280;70045;40.200;44.582;2024-01-16T09:31:15;86652.22;;;6.79;40.53
80682;BME280;70045;40.200;44.582;2024-01-16T09:33:40;86623.16;;;6.71;41.96
80682;BME280;70045;40.200;44.582;2024-01-16T09:36:06;86623.53;;;6.55;42.46
80682;BME280;70045;40.200;44.582;2024-01-16T09:38:32;86621.66;;;6.81;42.01
80682;BME280;70045;40.200;44.582;2024-01-16T09:41:01;86609.91;;;6.73;41.88
80682;BME280;70045;40.200;44.582;2024-01-16T09:43:31;86618.72;;;6.86;41.64
80682;BME280;70045;40.200;44.582;2024-01-16T09:46:00;86609.44;;;7.14;40.61
80682;BME280;70045;40.200;44.582;2024-01-16T09:48:27;86590.25;;;7.19;39.14
80682;BME280;70045;40.200;44.582;2024-01-16T09:50:53;86583.97;;;7.27;39.93
80682;BME280;70045;40.200;44.582;2024-01-16T09:53:23;86576.88;;;7.49;39.23
80682;BME280;70045;40.200;44.582;2024-01-16T09:55:50;86591.56;;;7.63;37.24
80682;BME280;70045;40.200;44.582;2024-01-16T09:58:19;86579.09;;;7.50;37.83
80682;BME280;70045;40.200;44.582;2024-01-16T10:00:44;86574.47;;;7.83;37.34
80682;BME280;70045;40.200;44.582;2024-01-16T10:03:12;86573.66;;;7.97;35.21
80682;BME280;70045;40.200;44.582;2024-01-16T10:05:42;86586.31;;;7.77;34.30
80682;BME280;70045;40.200;44.582;2024-01-16T10:08:08;86580.09;;;7.67;34.21
80682;BME280;70045;40.200;44.582;2024-01-16T10:10:34;86567.88;;;7.75;35.20
80682;BME280;70045;40.200;44.582;2024-01-16T10:13:00;86574.00;;;7.99;34.27
80682;BME280;70045;40.200;44.582;2024-01-16T10:15:26;86555.63;;;7.94;34.71
80682;BME280;70045;40.200;44.582;2024-01-16T10:17:55;86542.91;;;8.14;34.38
80682;BME280;70045;40.200;44.582;2024-01-16T10:20:32;86541.94;;;8.00;33.82
80682;BME280;70045;40.200;44.582;2024-01-16T10:22:58;86542.00;;;7.86;36.02
80682;BME280;70045;40.200;44.582;2024-01-16T10:25:24;86533.25;;;7.69;35.79
80682;BME280;70045;40.200;44.582;2024-01-16T10:28:05;86537.75;;;7.58;36.09
80682;BME280;70045;40.200;44.582;2024-01-16T10:30:31;86534.16;;;7.41;35.63
80682;BME280;70045;40.200;44.582;2024-01-16T10:33:12;86529.72;;;7.41;35.19
80682;BME280;70045;40.200;44.582;2024-01-16T10:35:38;86520.91;;;7.39;34.94
80682;BME280;70045;40.200;44.582;2024-01-16T10:38:03;86516.13;;;7.37;36.01
80682;BME280;70045;40.200;44.582;2024-01-16T10:40:31;86524.19;;;7.50;33.98
80682;BME280;70045;40.200;44.582;2024-01-16T10:43:04;86522.22;;;7.68;34.25
80682;BME280;70045;40.200;44.582;2024-01-16T10:45:33;86513.09;;;8.05;34.31
80682;BME280;70045;40.200;44.582;2024-01-16T10:48:06;86499.28;;;7.78;33.61
80682;BME280;70045;40.200;44.582;2024-01-16T10:50:37;86505.69;;;7.55;34.74
80682;BME280;70045;40.200;44.582;2024-01-16T10:53:04;86509.56;;;7.25;34.59
80682;BME280;70045;40.200;44.582;2024-01-16T10:55:31;86509.13;;;7.38;35.56
80682;BME280;70045;40.200;44.582;2024-01-16T10:58:01;86513.91;;;7.39;36.06
80682;BME280;70045;40.200;44.582;2024-01-16T11:00:28;86517.75;;;7.06;34.59
80682;BME280;70045;40.200;44.582;2024-01-16T11:03:05;86507.75;;;7.22;36.00
80682;BME280;70045;40.200;44.582;2024-01-16T11:05:33;86518.91;;;6.94;34.45
80682;BME280;70045;40.200;44.582;2024-01-16T11:07:59;86507.09;;;7.04;35.63
80682;BME280;70045;40.200;44.582;2024-01-16T11:10:25;86509.25;;;7.16;33.73
80682;BME280;70045;40.200;44.582;2024-01-16T11:12:52;86498.81;;;7.38;35.39
80682;BME280;70045;40.200;44.582;2024-01-16T11:15:22;86506.69;;;7.72;34.77
80682;BME280;70045;40.200;44.582;2024-01-16T11:17:49;86497.13;;;7.72;34.62
80682;BME280;70045;40.200;44.582;2024-01-16T11:20:15;86505.97;;;7.71;35.25
80682;BME280;70045;40.200;44.582;2024-01-16T11:22:43;86507.00;;;7.85;35.02
80682;BME280;70045;40.200;44.582;2024-01-16T11:25:10;86507.34;;;7.87;35.30
80682;BME280;70045;40.200;44.582;2024-01-16T11:27:40;86506.66;;;7.79;34.41
80682;BME280;70045;40.200;44.582;2024-01-16T11:30:07;86498.63;;;7.70;35.00
80682;BME280;70045;40.200;44.582;2024-01-16T11:32:40;86505.31;;;7.64;34.55
80682;BME280;70045;40.200;44.582;2024-01-16T11:35:09;86501.88;;;7.81;38.21
80682;BME280;70045;40.200;44.582;2024-01-16T11:37:36;86494.09;;;7.85;38.68
80682;BME280;70045;40.200;44.582;2024-01-16T11:42:44;86503.69;;;7.81;39.44
80682;BME280;70045;40.200;44.582;2024-01-16T11:50:41;86518.66;;;7.48;40.70
80682;BME280;70045;40.200;44.582;2024-01-16T11:53:07;86517.25;;;7.32;41.79
80682;BME280;70045;40.200;44.582;2024-01-16T11:55:35;86516.69;;;7.00;43.39
80682;BME280;70045;40.200;44.582;2024-01-16T11:58:21;86537.41;;;6.71;45.14
80682;BME280;70045;40.200;44.582;2024-01-16T12:00:54;86537.41;;;6.71;43.80
80682;BME280;70045;40.200;44.582;2024-01-16T12:03:21;86527.50;;;6.58;44.10
80682;BME280;70045;40.200;44.582;2024-01-16T12:05:57;86519.81;;;6.37;44.87
80682;BME280;70045;40.200;44.582;2024-01-16T12:08:23;86532.34;;;6.20;44.36
80682;BME280;70045;40.200;44.582;2024-01-16T12:10:49;86518.34;;;6.32;43.87
80682;BME280;70045;40.200;44.582;2024-01-16T12:13:19;86512.44;;;6.32;44.79
80682;BME280;70045;40.200;44.582;2024-01-16T12:15:44;86511.72;;;6.28;45.77
80682;BME280;70045;40.200;44.582;2024-01-16T12:18:10;86536.41;;;6.21;45.47
80682;BME280;70045;40.200;44.582;2024-01-16T12:20:36;86527.91;;;6.25;45.42
80682;BME280;70045;40.200;44.582;2024-01-16T12:23:07;86520.59;;;6.01;47.37
80682;BME280;70045;40.200;44.582;2024-01-16T12:25:37;86520.56;;;5.91;45.87
80682;BME280;70045;40.200;44.582;2024-01-16T12:28:07;86522.78;;;5.92;46.66
80682;BME280;70045;40.200;44.582;2024-01-16T12:30:34;86516.88;;;5.84;46.36
80682;BME280;70045;40.200;44.582;2024-01-16T12:33:11;86498.88;;;5.70;46.65
80682;BME280;70045;40.200;44.582;2024-01-16T12:35:42;86501.09;;;5.64;46.99
80682;BME280;70045;40.200;44.582;2024-01-16T12:38:09;86511.75;;;5.63;47.42
80682;BME280;70045;40.200;44.582;2024-01-16T12:40:42;86515.03;;;5.53;47.32
80682;BME280;70045;40.200;44.582;2024-01-16T12:43:09;86529.38;;;5.64;47.09
80682;BME280;70045;40.200;44.582;2024-01-16T12:45:35;86521.28;;;5.52;47.05
80682;BME280;70045;40.200;44.582;2024-01-16T12:48:04;86523.47;;;5.50;46.81
80682;BME280;70045;40.200;44.582;2024-01-16T12:50:31;86527.19;;;5.56;47.37
80682;BME280;70045;40.200;44.582;2024-01-16T12:53:07;86526.44;;;5.59;46.41
80682;BME280;70045;40.200;44.582;2024-01-16T12:55:34;86532.69;;;5.51;46.40
80682;BME280;70045;40.200;44.582;2024-01-16T12:58:19;86534.50;;;5.39;47.06
80682;BME280;70045;40.200;44.582;2024-01-16T13:00:45;86530.03;;;5.22;47.31
80682;BME280;70045;40.200;44.582;2024-01-16T13:03:22;86532.97;;;5.17;47.42
80682;BME280;70045;40.200;44.582;2024-01-16T13:06:00;86541.00;;;5.04;47.96
80682;BME280;70045;40.200;44.582;2024-01-16T13:08:29;86550.22;;;5.05;47.79
80682;BME280;70045;40.200;44.582;2024-01-16T13:11:06;86537.34;;;4.98;48.67
80682;BME280;70045;40.200;44.582;2024-01-16T13:13:32;86532.50;;;4.86;49.10
80682;BME280;70045;40.200;44.582;2024-01-16T13:15:58;86540.25;;;4.93;48.24
80682;BME280;70045;40.200;44.582;2024-01-16T13:18:25;86534.72;;;4.91;48.69